sensor_id;sensor_type;location;lat;lon;timestamp;P1;durP1;ratioP1;P2;durP2;ratioP2
4206;SDS011;2117;47.972;7.830;2022-09-28T01:32:30;3.10;;;1.00;;
4206;SDS011;2117;47.972;7.830;2022-09-28T01:35:10;3.07;;;1.17;;
4206;SDS011;2117;47.972;7.830;2022-09-28T01:37:48;3.30;;;1.30;;
4206;SDS011;2117;47.972;7.830;2022-09-28T01:40:18;4.33;;;1.13;;
4206;SDS011;2117;47.972;7.830;2022-09-28T01:42:47;4.07;;;0.80;;
4206;SDS011;2117;47.972;7.830;2022-09-28T01:45:19;2.53;;;1.10;;
4206;SDS011;2117;47.972;7.830;2022-09-28T01:47:50;2.17;;;1.00;;
4206;SDS011;2117;47.972;7.830;2022-09-28T01:50:18;2.53;;;0.70;;
4206;SDS011;2117;47.972;7.830;2022-09-28T01:52:48;1.83;;;0.70;;
4206;SDS011;2117;47.972;7.830;2022-09-28T01:55:31;2.20;;;0.87;;
4206;SDS011;2117;47.972;7.830;2022-09-28T01:58:01;3.57;;;1.13;;
4206;SDS011;2117;47.972;7.830;2022-09-28T02:00:50;2.00;;;0.80;;
4206;SDS011;2117;47.972;7.830;2022-09-28T02:03:29;2.07;;;0.90;;
4206;SDS011;2117;47.972;7.830;2022-09-28T02:06:05;4.13;;;0.80;;
4206;SDS011;2117;47.972;7.830;2022-09-28T02:08:53;2.73;;;0.70;;
4206;SDS011;2117;47.972;7.830;2022-09-28T02:11:25;1.70;;;0.70;;
4206;SDS011;2117;47.972;7.830;2022-09-28T02:13:58;2.53;;;0.70;;
4206;SDS011;2117;47.972;7.830;2022-09-28T02:16:30;2.53;;;0.60;;
4206;SDS011;2117;47.972;7.830;2022-09-28T02:19:05;4.03;;;1.03;;
4206;SDS011;2117;47.972;7.830;2022-09-28T02:24:32;3.53;;;0.77;;
4206;SDS011;2117;47.972;7.830;2022-09-28T02:27:03;1.60;;;0.70;;
4206;SDS011;2117;47.972;7.830;2022-09-28T02:29:55;2.40;;;1.07;;
4206;SDS011;2117;47.972;7.830;2022-09-28T02:32:21;2.70;;;0.90;;
4206;SDS011;2117;47.972;7.830;2022-09-28T02:34:48;1.10;;;0.60;;
4206;SDS011;2117;47.972;7.830;2022-09-28T02:37:13;2.37;;;0.80;;
4206;SDS011;2117;47.972;7.830;2022-09-28T02:39:39;2.30;;;0.60;;
4206;SDS011;2117;47.972;7.830;2022-09-28T02:42:11;1.40;;;0.70;;
4206;SDS011;2117;47.972;7.830;2022-09-28T02:45:07;1.43;;;0.60;;
4206;SDS011;2117;47.972;7.830;2022-09-28T02:53:21;2.20;;;0.60;;
4206;SDS011;2117;47.972;7.830;2022-09-28T02:58:19;1.20;;;0.60;;
4206;SDS011;2117;47.972;7.830;2022-09-28T03:00:50;3.23;;;0.70;;
4206;SDS011;2117;47.972;7.830;2022-09-28T03:03:30;3.30;;;0.80;;
4206;SDS011;2117;47.972;7.830;2022-09-28T03:06:12;3.53;;;0.67;;
4206;SDS011;2117;47.972;7.830;2022-09-28T03:09:57;1.87;;;0.63;;
4206;SDS011;2117;47.972;7.830;2022-09-28T03:12:00;1.30;;;0.60;;
4206;SDS011;2117;47.972;7.830;2022-09-28T03:14:33;1.50;;;0.70;;
4206;SDS011;2117;47.972;7.830;2022-09-28T03:16:59;5.27;;;0.77;;
4206;SDS011;2117;47.972;7.830;2022-09-28T03:19:29;2.60;;;0.90;;
4206;SDS011;2117;47.972;7.830;2022-09-28T03:21:57;1.73;;;0.63;;
4206;SDS011;2117;47.972;7.830;2022-09-28T03:24:23;2.47;;;0.67;;
4206;SDS011;2117;47.972;7.830;2022-09-28T03:26:49;4.03;;;0.80;;
4206;SDS011;2117;47.972;7.830;2022-09-28T03:29:15;1.20;;;0.67;;
4206;SDS011;2117;47.972;7.830;2022-09-28T03:31:40;1.60;;;0.70;;
4206;SDS011;2117;47.972;7.830;2022-09-28T03:34:08;1.77;;;0.70;;
4206;SDS011;2117;47.972;7.830;2022-09-28T03:36:33;1.67;;;0.60;;
4206;SDS011;2117;47.972;7.830;2022-09-28T03:38:59;2.70;;;0.90;;
4206;SDS011;2117;47.972;7.830;2022-09-28T03:41:25;1.60;;;0.70;;
4206;SDS011;2117;47.972;7.830;2022-09-28T03:43:53;1.80;;;1.30;;
4206;SDS011;2117;47.972;7.830;2022-09-28T03:46:19;1.20;;;0.70;;
4206;SDS011;2117;47.972;7.830;2022-09-28T03:48:44;2.27;;;0.73;;
4206;SDS011;2117;47.972;7.830;2022-09-28T03:51:10;1.83;;;0.80;;
4206;SDS011;2117;47.972;7.830;2022-09-28T03:53:37;1.23;;;0.70;;
4206;SDS011;2117;47.972;7.830;2022-09-28T03:56:10;1.70;;;0.80;;
4206;SDS011;2117;47.972;7.830;2022-09-28T03:58:37;1.67;;;0.80;;
4206;SDS011;2117;47.972;7.830;2022-09-28T04:01:03;2.03;;;0.80;;
4206;SDS011;2117;47.972;7.830;2022-09-28T04:03:37;1.77;;;0.77;;
4206;SDS011;2117;47.972;7.830;2022-09-28T04:06:02;1.40;;;0.80;;
4206;SDS011;2117;47.972;7.830;2022-09-28T04:08:28;4.70;;;0.70;;
4206;SDS011;2117;47.972;7.830;2022-09-28T04:10:57;1.10;;;0.60;;
4206;SDS011;2117;47.972;7.830;2022-09-28T04:13:24;3.13;;;0.70;;
4206;SDS011;2117;47.972;7.830;2022-09-28T04:15:51;3.60;;;0.83;;
4206;SDS011;2117;47.972;7.830;2022-09-28T04:18:18;2.13;;;0.60;;
4206;SDS011;2117;47.972;7.830;2022-09-28T04:20:44;1.10;;;0.50;;
4206;SDS011;2117;47.972;7.830;2022-09-28T04:23:12;2.10;;;0.70;;
4206;SDS011;2117;47.972;7.830;2022-09-28T04:25:40;1.27;;;0.60;;
4206;SDS011;2117;47.972;7.830;2022-09-28T04:28:07;1.03;;;0.50;;
4206;SDS011;2117;47.972;7.830;2022-09-28T04:30:51;1.70;;;1.07;;
4206;SDS011;2117;47.972;7.830;2022-09-28T04:33:17;1.87;;;0.70;;
4206;SDS011;2117;47.972;7.830;2022-09-28T04:35:42;1.73;;;0.60;;
4206;SDS011;2117;47.972;7.830;2022-09-28T04:38:08;2.03;;;0.60;;
4206;SDS011;2117;47.972;7.830;2022-09-28T04:40:33;1.53;;;0.60;;
4206;SDS011;2117;47.972;7.830;2022-09-28T04:42:59;1.53;;;0.77;;
4206;SDS011;2117;47.972;7.830;2022-09-28T04:45:24;1.37;;;0.73;;
4206;SDS011;2117;47.972;7.830;2022-09-28T04:47:50;1.00;;;0.70;;
4206;SDS011;2117;47.972;7.830;2022-09-28T04:50:16;1.10;;;0.70;;
4206;SDS011;2117;47.972;7.830;2022-09-28T04:52:42;4.30;;;0.73;;
4206;SDS011;2117;47.972;7.830;2022-09-28T04:55:08;1.30;;;0.70;;
4206;SDS011;2117;47.972;7.830;2022-09-28T04:57:37;1.30;;;0.70;;
4206;SDS011;2117;47.972;7.830;2022-09-28T05:00:02;1.40;;;0.67;;
4206;SDS011;2117;47.972;7.830;2022-09-28T05:02:29;1.23;;;0.60;;
4206;SDS011;2117;47.972;7.830;2022-09-28T05:04:54;2.60;;;0.90;;
4206;SDS011;2117;47.972;7.830;2022-09-28T05:07:22;1.20;;;0.60;;
4206;SDS011;2117;47.972;7.830;2022-09-28T05:09:48;1.10;;;0.60;;
4206;SDS011;2117;47.972;7.830;2022-09-28T05:12:14;1.10;;;0.60;;
4206;SDS011;2117;47.972;7.830;2022-09-28T05:14:40;1.80;;;0.70;;
4206;SDS011;2117;47.972;7.830;2022-09-28T05:17:06;1.43;;;0.80;;
4206;SDS011;2117;47.972;7.830;2022-09-28T05:19:32;1.80;;;0.90;;
4206;SDS011;2117;47.972;7.830;2022-09-28T05:21:59;1.70;;;0.70;;
4206;SDS011;2117;47.972;7.830;2022-09-28T05:24:28;1.63;;;0.60;;
4206;SDS011;2117;47.972;7.830;2022-09-28T05:26:54;4.33;;;1.00;;
4206;SDS011;2117;47.972;7.830;2022-09-28T05:29:20;3.80;;;1.90;;
4206;SDS011;2117;47.972;7.830;2022-09-28T05:31:45;2.00;;;1.00;;
4206;SDS011;2117;47.972;7.830;2022-09-28T05:34:11;1.10;;;0.57;;
4206;SDS011;2117;47.972;7.830;2022-09-28T05:36:37;1.20;;;0.60;;
4206;SDS011;2117;47.972;7.830;2022-09-28T05:39:04;1.47;;;0.60;;
4206;SDS011;2117;47.972;7.830;2022-09-28T05:41:30;2.87;;;0.63;;
4206;SDS011;2117;47.972;7.830;2022-09-28T05:43:55;1.10;;;0.60;;
4206;SDS011;2117;47.972;7.830;2022-09-28T05:46:22;1.37;;;0.60;;
4206;SDS011;2117;47.972;7.830;2022-09-28T05:48:47;1.00;;;0.57;;
4206;SDS011;2117;47.972;7.830;2022-09-28T05:51:15;1.10;;;0.60;;
4206;SDS011;2117;47.972;7.830;2022-09-28T05:53:40;1.30;;;0.60;;
4206;SDS011;2117;47.972;7.830;2022-09-28T05:56:06;1.10;;;0.60;;
4206;SDS011;2117;47.972;7.830;2022-09-28T05:58:31;1.30;;;0.60;;
4206;SDS011;2117;47.972;7.830;2022-09-28T06:00:57;0.97;;;0.50;;
4206;SDS011;2117;47.972;7.830;2022-09-28T06:03:23;1.00;;;0.60;;
4206;SDS011;2117;47.972;7.830;2022-09-28T06:05:49;1.10;;;0.53;;
4206;SDS011;2117;47.972;7.830;2022-09-28T06:08:15;1.37;;;0.60;;
4206;SDS011;2117;47.972;7.830;2022-09-28T06:10:40;3.43;;;0.60;;
4206;SDS011;2117;47.972;7.830;2022-09-28T06:13:06;1.00;;;0.50;;
4206;SDS011;2117;47.972;7.830;2022-09-28T06:15:33;1.00;;;0.57;;
4206;SDS011;2117;47.972;7.830;2022-09-28T06:20:26;1.33;;;0.60;;
4206;SDS011;2117;47.972;7.830;2022-09-28T06:22:54;1.73;;;0.63;;
4206;SDS011;2117;47.972;7.830;2022-09-28T06:25:20;1.67;;;1.07;;
4206;SDS011;2117;47.972;7.830;2022-09-28T06:30:25;1.37;;;0.60;;
4206;SDS011;2117;47.972;7.830;2022-09-28T06:32:55;1.10;;;0.70;;
4206;SDS011;2117;47.972;7.830;2022-09-28T06:35:23;3.07;;;0.70;;
4206;SDS011;2117;47.972;7.830;2022-09-28T06:37:50;1.00;;;0.60;;
4206;SDS011;2117;47.972;7.830;2022-09-28T06:40:16;1.40;;;0.60;;
4206;SDS011;2117;47.972;7.830;2022-09-28T06:42:42;1.00;;;0.60;;
4206;SDS011;2117;47.972;7.830;2022-09-28T06:45:08;2.70;;;0.90;;
4206;SDS011;2117;47.972;7.830;2022-09-28T06:47:35;2.23;;;0.83;;
4206;SDS011;2117;47.972;7.830;2022-09-28T06:50:01;2.83;;;1.00;;
4206;SDS011;2117;47.972;7.830;2022-09-28T06:52:28;2.00;;;1.30;;
4206;SDS011;2117;47.972;7.830;2022-09-28T06:54:53;3.10;;;1.37;;
4206;SDS011;2117;47.972;7.830;2022-09-28T06:57:19;4.97;;;2.03;;
4206;SDS011;2117;47.972;7.830;2022-09-28T06:59:45;4.93;;;1.80;;
4206;SDS011;2117;47.972;7.830;2022-09-28T07:02:10;2.23;;;1.20;;
4206;SDS011;2117;47.972;7.830;2022-09-28T07:04:40;3.10;;;1.40;;
4206;SDS011;2117;47.972;7.830;2022-09-28T07:07:09;2.20;;;1.33;;
4206;SDS011;2117;47.972;7.830;2022-09-28T07:09:35;1.90;;;1.30;;
4206;SDS011;2117;47.972;7.830;2022-09-28T07:12:01;10.33;;;1.83;;
4206;SDS011;2117;47.972;7.830;2022-09-28T07:14:34;3.53;;;1.67;;
4206;SDS011;2117;47.972;7.830;2022-09-28T07:16:59;2.57;;;1.17;;
4206;SDS011;2117;47.972;7.830;2022-09-28T07:19:26;5.53;;;1.30;;
4206;SDS011;2117;47.972;7.830;2022-09-28T07:21:51;3.20;;;1.93;;
4206;SDS011;2117;47.972;7.830;2022-09-28T07:24:17;8.30;;;1.90;;
4206;SDS011;2117;47.972;7.830;2022-09-28T07:26:43;2.17;;;1.20;;
4206;SDS011;2117;47.972;7.830;2022-09-28T07:29:09;4.63;;;0.93;;
4206;SDS011;2117;47.972;7.830;2022-09-28T07:31:35;2.93;;;1.27;;
4206;SDS011;2117;47.972;7.830;2022-09-28T07:34:01;2.63;;;1.20;;
4206;SDS011;2117;47.972;7.830;2022-09-28T07:36:27;7.23;;;1.00;;
4206;SDS011;2117;47.972;7.830;2022-09-28T07:38:54;4.50;;;1.17;;
4206;SDS011;2117;47.972;7.830;2022-09-28T07:41:19;1.80;;;0.90;;
4206;SDS011;2117;47.972;7.830;2022-09-28T07:43:56;1.70;;;0.80;;
4206;SDS011;2117;47.972;7.830;2022-09-28T07:46:31;2.00;;;0.90;;
4206;SDS011;2117;47.972;7.830;2022-09-28T07:48:58;3.13;;;1.10;;
4206;SDS011;2117;47.972;7.830;2022-09-28T07:51:23;4.30;;;0.93;;
4206;SDS011;2117;47.972;7.830;2022-09-28T07:53:49;4.87;;;1.77;;
4206;SDS011;2117;47.972;7.830;2022-09-28T07:56:18;2.83;;;1.40;;
4206;SDS011;2117;47.972;7.830;2022-09-28T07:58:45;4.63;;;0.90;;
4206;SDS011;2117;47.972;7.830;2022-09-28T08:01:11;2.07;;;1.00;;
4206;SDS011;2117;47.972;7.830;2022-09-28T08:03:39;8.43;;;1.63;;
4206;SDS011;2117;47.972;7.830;2022-09-28T08:06:09;2.57;;;1.27;;
4206;SDS011;2117;47.972;7.830;2022-09-28T08:08:36;3.20;;;1.23;;
4206;SDS011;2117;47.972;7.830;2022-09-28T08:11:07;2.13;;;0.90;;
4206;SDS011;2117;47.972;7.830;2022-09-28T08:13:34;1.60;;;0.90;;
4206;SDS011;2117;47.972;7.830;2022-09-28T08:16:00;3.20;;;1.30;;
4206;SDS011;2117;47.972;7.830;2022-09-28T08:18:27;8.70;;;1.23;;
4206;SDS011;2117;47.972;7.830;2022-09-28T08:20:53;7.33;;;1.20;;
4206;SDS011;2117;47.972;7.830;2022-09-28T08:23:37;3.90;;;1.53;;
4206;SDS011;2117;47.972;7.830;2022-09-28T08:26:03;6.57;;;1.67;;
4206;SDS011;2117;47.972;7.830;2022-09-28T08:28:31;3.97;;;2.03;;
4206;SDS011;2117;47.972;7.830;2022-09-28T08:30:59;3.60;;;1.43;;
4206;SDS011;2117;47.972;7.830;2022-09-28T08:33:25;3.03;;;1.10;;
4206;SDS011;2117;47.972;7.830;2022-09-28T08:35:58;5.60;;;1.93;;
4206;SDS011;2117;47.972;7.830;2022-09-28T08:38:25;5.27;;;1.77;;
4206;SDS011;2117;47.972;7.830;2022-09-28T08:46:10;2.73;;;1.60;;
4206;SDS011;2117;47.972;7.830;2022-09-28T08:48:38;5.50;;;1.70;;
4206;SDS011;2117;47.972;7.830;2022-09-28T08:51:31;9.27;;;4.00;;
4206;SDS011;2117;47.972;7.830;2022-09-28T08:54:25;8.23;;;3.20;;
4206;SDS011;2117;47.972;7.830;2022-09-28T08:57:26;6.87;;;4.20;;
4206;SDS011;2117;47.972;7.830;2022-09-28T08:59:54;5.90;;;3.03;;
4206;SDS011;2117;47.972;7.830;2022-09-28T09:02:26;7.23;;;2.50;;
4206;SDS011;2117;47.972;7.830;2022-09-28T09:04:57;2.30;;;1.50;;
4206;SDS011;2117;47.972;7.830;2022-09-28T09:18:32;6.20;;;3.87;;
4206;SDS011;2117;47.972;7.830;2022-09-28T09:21:06;6.70;;;2.93;;
4206;SDS011;2117;47.972;7.830;2022-09-28T09:26:34;3.07;;;1.60;;
4206;SDS011;2117;47.972;7.830;2022-09-28T09:31:42;3.30;;;1.27;;
4206;SDS011;2117;47.972;7.830;2022-09-28T09:39:59;5.53;;;3.07;;
4206;SDS011;2117;47.972;7.830;2022-09-28T09:45:53;11.67;;;4.70;;
4206;SDS011;2117;47.972;7.830;2022-09-28T09:48:44;2.40;;;1.60;;
4206;SDS011;2117;47.972;7.830;2022-09-28T09:54:23;5.03;;;1.87;;
4206;SDS011;2117;47.972;7.830;2022-09-28T09:59:30;3.53;;;1.80;;
4206;SDS011;2117;47.972;7.830;2022-09-28T10:02:01;4.80;;;1.67;;
4206;SDS011;2117;47.972;7.830;2022-09-28T10:04:35;3.80;;;1.67;;
4206;SDS011;2117;47.972;7.830;2022-09-28T10:07:05;5.40;;;1.77;;
4206;SDS011;2117;47.972;7.830;2022-09-28T10:09:45;3.27;;;1.50;;
4206;SDS011;2117;47.972;7.830;2022-09-28T10:12:14;1.77;;;1.00;;
4206;SDS011;2117;47.972;7.830;2022-09-28T10:14:46;3.20;;;1.10;;
4206;SDS011;2117;47.972;7.830;2022-09-28T10:17:14;2.60;;;1.77;;
4206;SDS011;2117;47.972;7.830;2022-09-28T10:19:42;4.33;;;1.93;;
4206;SDS011;2117;47.972;7.830;2022-09-28T10:22:09;4.63;;;1.57;;
4206;SDS011;2117;47.972;7.830;2022-09-28T10:24:45;2.13;;;1.00;;
4206;SDS011;2117;47.972;7.830;2022-09-28T10:27:14;4.90;;;1.47;;
4206;SDS011;2117;47.972;7.830;2022-09-28T10:29:49;2.20;;;1.20;;
4206;SDS011;2117;47.972;7.830;2022-09-28T10:32:25;1.97;;;1.20;;
4206;SDS011;2117;47.972;7.830;2022-09-28T10:37:48;4.30;;;1.70;;
4206;SDS011;2117;47.972;7.830;2022-09-28T10:46:01;2.57;;;1.13;;
4206;SDS011;2117;47.972;7.830;2022-09-28T10:51:09;5.10;;;1.33;;
4206;SDS011;2117;47.972;7.830;2022-09-28T10:53:35;5.30;;;1.43;;
4206;SDS011;2117;47.972;7.830;2022-09-28T10:56:04;4.67;;;1.50;;
4206;SDS011;2117;47.972;7.830;2022-09-28T10:58:43;3.90;;;1.80;;
4206;SDS011;2117;47.972;7.830;2022-09-28T11:01:10;2.70;;;1.33;;
4206;SDS011;2117;47.972;7.830;2022-09-28T11:04:00;2.90;;;1.57;;
4206;SDS011;2117;47.972;7.830;2022-09-28T11:06:28;3.93;;;2.57;;
4206;SDS011;2117;47.972;7.830;2022-09-28T11:09:19;2.43;;;1.37;;
4206;SDS011;2117;47.972;7.830;2022-09-28T11:11:55;7.03;;;2.63;;
4206;SDS011;2117;47.972;7.830;2022-09-28T11:14:35;7.87;;;2.70;;
4206;SDS011;2117;47.972;7.830;2022-09-28T11:17:15;5.30;;;2.37;;
4206;SDS011;2117;47.972;7.830;2022-09-28T11:19:49;4.00;;;2.50;;
4206;SDS011;2117;47.972;7.830;2022-09-28T11:22:24;3.70;;;1.47;;
4206;SDS011;2117;47.972;7.830;2022-09-28T11:27:58;3.50;;;2.10;;
4206;SDS011;2117;47.972;7.830;2022-09-28T11:30:45;3.40;;;2.17;;
4206;SDS011;2117;47.972;7.830;2022-09-28T11:33:19;3.63;;;2.37;;
4206;SDS011;2117;47.972;7.830;2022-09-28T11:41:20;4.17;;;1.67;;
4206;SDS011;2117;47.972;7.830;2022-09-28T11:44:05;3.63;;;1.33;;
4206;SDS011;2117;47.972;7.830;2022-09-28T11:57:47;2.00;;;1.20;;
4206;SDS011;2117;47.972;7.830;2022-09-28T12:00:38;6.20;;;1.97;;
4206;SDS011;2117;47.972;7.830;2022-09-28T12:03:11;3.30;;;1.60;;
4206;SDS011;2117;47.972;7.830;2022-09-28T12:05:52;4.63;;;1.73;;
4206;SDS011;2117;47.972;7.830;2022-09-28T12:08:33;4.27;;;2.00;;
4206;SDS011;2117;47.972;7.830;2022-09-28T12:11:06;2.60;;;1.67;;
4206;SDS011;2117;47.972;7.830;2022-09-28T12:13:48;2.80;;;1.47;;
4206;SDS011;2117;47.972;7.830;2022-09-28T12:16:24;5.20;;;2.10;;
4206;SDS011;2117;47.972;7.830;2022-09-28T12:21:49;3.27;;;2.10;;
4206;SDS011;2117;47.972;7.830;2022-09-28T12:24:32;3.63;;;1.63;;
4206;SDS011;2117;47.972;7.830;2022-09-28T12:29:45;4.30;;;2.00;;
4206;SDS011;2117;47.972;7.830;2022-09-28T12:34:55;4.63;;;2.70;;
4206;SDS011;2117;47.972;7.830;2022-09-28T12:51:19;2.53;;;1.40;;
4206;SDS011;2117;47.972;7.830;2022-09-28T12:54:19;4.37;;;1.80;;
4206;SDS011;2117;47.972;7.830;2022-09-28T13:05:30;3.37;;;1.57;;
4206;SDS011;2117;47.972;7.830;2022-09-28T13:08:30;3.33;;;1.20;;
4206;SDS011;2117;47.972;7.830;2022-09-28T13:11:31;3.70;;;1.33;;
4206;SDS011;2117;47.972;7.830;2022-09-28T13:19:47;3.20;;;1.43;;
4206;SDS011;2117;47.972;7.830;2022-09-28T13:25:10;1.53;;;1.00;;
4206;SDS011;2117;47.972;7.830;2022-09-28T13:27:39;3.13;;;1.20;;
4206;SDS011;2117;47.972;7.830;2022-09-28T13:30:11;2.57;;;1.50;;
4206;SDS011;2117;47.972;7.830;2022-09-28T13:32:38;3.70;;;1.50;;
4206;SDS011;2117;47.972;7.830;2022-09-28T13:35:05;2.93;;;1.20;;
4206;SDS011;2117;47.972;7.830;2022-09-28T13:37:37;1.67;;;0.97;;
4206;SDS011;2117;47.972;7.830;2022-09-28T13:40:02;5.00;;;1.10;;
4206;SDS011;2117;47.972;7.830;2022-09-28T13:50:35;3.87;;;1.93;;
4206;SDS011;2117;47.972;7.830;2022-09-28T13:58:55;3.63;;;1.83;;
4206;SDS011;2117;47.972;7.830;2022-09-28T14:01:40;3.97;;;2.00;;
4206;SDS011;2117;47.972;7.830;2022-09-28T14:04:15;4.20;;;1.90;;
4206;SDS011;2117;47.972;7.830;2022-09-28T14:07:25;6.43;;;2.40;;
4206;SDS011;2117;47.972;7.830;2022-09-28T14:12:42;4.87;;;2.20;;
4206;SDS011;2117;47.972;7.830;2022-09-28T14:20:36;5.93;;;2.07;;
4206;SDS011;2117;47.972;7.830;2022-09-28T14:23:15;5.57;;;3.10;;
4206;SDS011;2117;47.972;7.830;2022-09-28T14:28:47;2.30;;;1.50;;
4206;SDS011;2117;47.972;7.830;2022-09-28T14:31:28;5.20;;;1.40;;
4206;SDS011;2117;47.972;7.830;2022-09-28T14:33:58;6.93;;;2.80;;
4206;SDS011;2117;47.972;7.830;2022-09-28T14:36:37;7.30;;;4.13;;
4206;SDS011;2117;47.972;7.830;2022-09-28T14:39:30;7.43;;;2.67;;
4206;SDS011;2117;47.972;7.830;2022-09-28T14:42:17;3.13;;;1.50;;
4206;SDS011;2117;47.972;7.830;2022-09-28T14:45:33;3.20;;;1.60;;
4206;SDS011;2117;47.972;7.830;2022-09-28T14:47:34;2.93;;;1.90;;
4206;SDS011;2117;47.972;7.830;2022-09-28T14:50:28;2.27;;;1.10;;
4206;SDS011;2117;47.972;7.830;2022-09-28T14:52:54;3.20;;;1.60;;
4206;SDS011;2117;47.972;7.830;2022-09-28T14:55:30;3.10;;;1.40;;
4206;SDS011;2117;47.972;7.830;2022-09-28T14:58:02;2.80;;;1.53;;
4206;SDS011;2117;47.972;7.830;2022-09-28T15:00:31;5.30;;;1.63;;
4206;SDS011;2117;47.972;7.830;2022-09-28T15:02:59;3.40;;;1.87;;
4206;SDS011;2117;47.972;7.830;2022-09-28T15:05:29;4.00;;;1.30;;
4206;SDS011;2117;47.972;7.830;2022-09-28T15:08:02;3.00;;;1.63;;
4206;SDS011;2117;47.972;7.830;2022-09-28T15:10:29;3.50;;;1.77;;
4206;SDS011;2117;47.972;7.830;2022-09-28T15:12:58;3.10;;;1.43;;
4206;SDS011;2117;47.972;7.830;2022-09-28T15:18:29;5.70;;;2.10;;
4206;SDS011;2117;47.972;7.830;2022-09-28T15:21:22;4.70;;;1.67;;
4206;SDS011;2117;47.972;7.830;2022-09-28T15:23:55;3.30;;;1.50;;
4206;SDS011;2117;47.972;7.830;2022-09-28T15:26:28;2.30;;;1.50;;
4206;SDS011;2117;47.972;7.830;2022-09-28T15:28:55;2.53;;;1.93;;
4206;SDS011;2117;47.972;7.830;2022-09-28T15:31:22;4.50;;;2.73;;
4206;SDS011;2117;47.972;7.830;2022-09-28T15:33:50;2.13;;;1.50;;
4206;SDS011;2117;47.972;7.830;2022-09-28T15:36:39;3.17;;;1.77;;
4206;SDS011;2117;47.972;7.830;2022-09-28T15:39:11;1.73;;;1.00;;
4206;SDS011;2117;47.972;7.830;2022-09-28T15:41:50;1.97;;;1.03;;
4206;SDS011;2117;47.972;7.830;2022-09-28T15:44:35;3.13;;;1.13;;
4206;SDS011;2117;47.972;7.830;2022-09-28T15:47:12;5.20;;;1.23;;
4206;SDS011;2117;47.972;7.830;2022-09-28T15:49:59;3.77;;;1.30;;
4206;SDS011;2117;47.972;7.830;2022-09-28T15:52:38;5.43;;;1.80;;
4206;SDS011;2117;47.972;7.830;2022-09-28T15:57:58;3.20;;;1.07;;
4206;SDS011;2117;47.972;7.830;2022-09-28T16:00:29;3.00;;;1.50;;
4206;SDS011;2117;47.972;7.830;2022-09-28T16:03:29;3.73;;;1.67;;
4206;SDS011;2117;47.972;7.830;2022-09-28T16:11:02;3.87;;;2.10;;
4206;SDS011;2117;47.972;7.830;2022-09-28T16:13:35;2.90;;;1.43;;
4206;SDS011;2117;47.972;7.830;2022-09-28T16:16:16;6.73;;;3.37;;
4206;SDS011;2117;47.972;7.830;2022-09-28T16:18:47;5.30;;;2.60;;
4206;SDS011;2117;47.972;7.830;2022-09-28T16:21:25;5.10;;;4.30;;
4206;SDS011;2117;47.972;7.830;2022-09-28T16:24:20;7.00;;;3.20;;
4206;SDS011;2117;47.972;7.830;2022-09-28T16:27:25;8.57;;;3.07;;
4206;SDS011;2117;47.972;7.830;2022-09-28T16:30:19;4.17;;;2.10;;
4206;SDS011;2117;47.972;7.830;2022-09-28T16:32:51;5.27;;;3.73;;
4206;SDS011;2117;47.972;7.830;2022-09-28T16:37:47;5.87;;;3.40;;
4206;SDS011;2117;47.972;7.830;2022-09-28T16:40:18;4.37;;;3.40;;
4206;SDS011;2117;47.972;7.830;2022-09-28T16:42:44;5.53;;;2.80;;
4206;SDS011;2117;47.972;7.830;2022-09-28T16:45:16;3.57;;;2.53;;
4206;SDS011;2117;47.972;7.830;2022-09-28T16:47:44;5.57;;;3.10;;
4206;SDS011;2117;47.972;7.830;2022-09-28T16:50:13;8.53;;;3.90;;
4206;SDS011;2117;47.972;7.830;2022-09-28T16:52:39;8.33;;;3.43;;
4206;SDS011;2117;47.972;7.830;2022-09-28T16:55:24;4.97;;;2.90;;
4206;SDS011;2117;47.972;7.830;2022-09-28T16:57:49;3.87;;;2.53;;
4206;SDS011;2117;47.972;7.830;2022-09-28T17:00:16;3.57;;;2.60;;
4206;SDS011;2117;47.972;7.830;2022-09-28T17:02:45;9.93;;;6.00;;
4206;SDS011;2117;47.972;7.830;2022-09-28T17:05:12;9.10;;;5.30;;
4206;SDS011;2117;47.972;7.830;2022-09-28T17:07:40;12.07;;;5.50;;
4206;SDS011;2117;47.972;7.830;2022-09-28T17:10:23;4.20;;;3.70;;
4206;SDS011;2117;47.972;7.830;2022-09-28T17:13:01;4.37;;;3.47;;
4206;SDS011;2117;47.972;7.830;2022-09-28T17:15:27;3.57;;;2.50;;
4206;SDS011;2117;47.972;7.830;2022-09-28T17:17:52;3.03;;;2.23;;
4206;SDS011;2117;47.972;7.830;2022-09-28T17:20:20;2.67;;;1.80;;
4206;SDS011;2117;47.972;7.830;2022-09-28T17:22:52;3.77;;;2.67;;
4206;SDS011;2117;47.972;7.830;2022-09-28T17:25:18;3.23;;;2.73;;
4206;SDS011;2117;47.972;7.830;2022-09-28T17:27:46;4.00;;;2.80;;
4206;SDS011;2117;47.972;7.830;2022-09-28T17:30:13;2.80;;;2.00;;
4206;SDS011;2117;47.972;7.830;2022-09-28T17:32:40;4.33;;;2.07;;
4206;SDS011;2117;47.972;7.830;2022-09-28T17:35:13;3.73;;;2.37;;
4206;SDS011;2117;47.972;7.830;2022-09-28T17:37:41;6.37;;;3.40;;
4206;SDS011;2117;47.972;7.830;2022-09-28T17:40:23;6.30;;;3.50;;
4206;SDS011;2117;47.972;7.830;2022-09-28T17:42:50;5.20;;;2.90;;
4206;SDS011;2117;47.972;7.830;2022-09-28T17:45:20;4.63;;;2.03;;
4206;SDS011;2117;47.972;7.830;2022-09-28T17:47:47;4.77;;;2.60;;
4206;SDS011;2117;47.972;7.830;2022-09-28T17:52:53;3.73;;;2.17;;
4206;SDS011;2117;47.972;7.830;2022-09-28T17:55:22;4.43;;;2.47;;
4206;SDS011;2117;47.972;7.830;2022-09-28T17:57:52;4.90;;;2.23;;
4206;SDS011;2117;47.972;7.830;2022-09-28T18:00:18;2.80;;;2.27;;
4206;SDS011;2117;47.972;7.830;2022-09-28T18:02:44;3.87;;;2.57;;
4206;SDS011;2117;47.972;7.830;2022-09-28T18:05:10;3.83;;;2.47;;
4206;SDS011;2117;47.972;7.830;2022-09-28T18:07:38;15.70;;;4.53;;
4206;SDS011;2117;47.972;7.830;2022-09-28T18:10:14;4.97;;;3.03;;
4206;SDS011;2117;47.972;7.830;2022-09-28T18:12:43;6.27;;;3.03;;
4206;SDS011;2117;47.972;7.830;2022-09-28T18:15:09;4.30;;;2.70;;
4206;SDS011;2117;47.972;7.830;2022-09-28T18:17:36;6.90;;;4.27;;
4206;SDS011;2117;47.972;7.830;2022-09-28T18:20:02;7.17;;;4.50;;
4206;SDS011;2117;47.972;7.830;2022-09-28T18:22:28;8.50;;;5.20;;
4206;SDS011;2117;47.972;7.830;2022-09-28T18:24:54;8.40;;;4.63;;
4206;SDS011;2117;47.972;7.830;2022-09-28T18:27:19;8.60;;;4.40;;
4206;SDS011;2117;47.972;7.830;2022-09-28T18:29:45;10.07;;;5.13;;
4206;SDS011;2117;47.972;7.830;2022-09-28T18:32:10;10.20;;;5.47;;
4206;SDS011;2117;47.972;7.830;2022-09-28T18:34:36;11.50;;;4.57;;
4206;SDS011;2117;47.972;7.830;2022-09-28T18:37:02;11.17;;;4.00;;
4206;SDS011;2117;47.972;7.830;2022-09-28T18:39:29;10.13;;;4.53;;
4206;SDS011;2117;47.972;7.830;2022-09-28T18:41:55;9.90;;;4.67;;
4206;SDS011;2117;47.972;7.830;2022-09-28T18:44:20;5.93;;;3.13;;
4206;SDS011;2117;47.972;7.830;2022-09-28T18:46:46;6.70;;;2.40;;
4206;SDS011;2117;47.972;7.830;2022-09-28T18:49:12;4.97;;;2.13;;
4206;SDS011;2117;47.972;7.830;2022-09-28T18:51:37;4.00;;;2.37;;
4206;SDS011;2117;47.972;7.830;2022-09-28T18:54:03;6.83;;;1.93;;
4206;SDS011;2117;47.972;7.830;2022-09-28T18:56:31;2.60;;;2.30;;
4206;SDS011;2117;47.972;7.830;2022-09-28T18:59:02;5.13;;;2.40;;
4206;SDS011;2117;47.972;7.830;2022-09-28T19:01:32;4.87;;;2.80;;
4206;SDS011;2117;47.972;7.830;2022-09-28T19:04:00;3.17;;;2.40;;
4206;SDS011;2117;47.972;7.830;2022-09-28T19:06:27;4.30;;;2.30;;
4206;SDS011;2117;47.972;7.830;2022-09-28T19:08:53;3.30;;;1.80;;
4206;SDS011;2117;47.972;7.830;2022-09-28T19:11:19;3.40;;;1.97;;
4206;SDS011;2117;47.972;7.830;2022-09-28T19:13:46;2.63;;;1.83;;
4206;SDS011;2117;47.972;7.830;2022-09-28T19:16:14;2.70;;;1.63;;
4206;SDS011;2117;47.972;7.830;2022-09-28T19:18:41;3.97;;;2.30;;
4206;SDS011;2117;47.972;7.830;2022-09-28T19:21:08;3.43;;;2.57;;
4206;SDS011;2117;47.972;7.830;2022-09-28T19:23:35;4.53;;;2.53;;
4206;SDS011;2117;47.972;7.830;2022-09-28T19:26:02;4.70;;;2.80;;
4206;SDS011;2117;47.972;7.830;2022-09-28T19:28:37;3.70;;;2.70;;
4206;SDS011;2117;47.972;7.830;2022-09-28T19:31:05;2.80;;;2.27;;
4206;SDS011;2117;47.972;7.830;2022-09-28T19:33:33;4.07;;;2.60;;
4206;SDS011;2117;47.972;7.830;2022-09-28T19:36:00;5.57;;;2.87;;
4206;SDS011;2117;47.972;7.830;2022-09-28T19:38:29;6.70;;;2.53;;
4206;SDS011;2117;47.972;7.830;2022-09-28T19:40:56;5.40;;;3.00;;
4206;SDS011;2117;47.972;7.830;2022-09-28T19:43:22;4.83;;;2.60;;
4206;SDS011;2117;47.972;7.830;2022-09-28T19:45:49;4.57;;;2.83;;
4206;SDS011;2117;47.972;7.830;2022-09-28T19:48:34;5.17;;;2.87;;
4206;SDS011;2117;47.972;7.830;2022-09-28T19:51:00;8.83;;;2.43;;
4206;SDS011;2117;47.972;7.830;2022-09-28T19:53:29;6.13;;;2.20;;
4206;SDS011;2117;47.972;7.830;2022-09-28T19:55:56;3.77;;;1.93;;